LIEO Información de aeropuertos

Información de pistas
Pista 05 Longitud 8025 ft Ancho 148 ft
Elevación 35 ft Umbral 805 ft Rumbo 53
Pista 23 Longitud 8025 ft Ancho 148 ft
Elevación 19 ft Umbral 495 ft Rumbo 233
Frecuencias
Tipo APP Nombre OLBIA RADA Frequencia 125.95 MHZ
Tipo ATIS Nombre ATIS Frequencia 113.9 MHZ
Tipo TWR Nombre OLBIA TWR Frequencia 118.975 MHZ
Radioayudas
Tipo VOR-DME Nombre Olbia Costa Smeralda Frequencia 113900 KHZ
Tipo NDB Nombre Olbia Costa Smeralda Frequencia 357 KHZ
Información meteorológica y NOTAM
ADDS - METARS form results

(1830 UTC 27 September 2021)
Data provider http://aviationweather.gov/metar/data/
 
METAR text: LIEO 271820Z VRB03KT CAVOK 24/14 Q1018
Conditions at: LIEO (OLBIA/COSTA SMER, IT) observed 1820 UTC 27 September 2021
Temperature: 24.0°C (75°F)
Dewpoint: 14.0°C (57°F) [RH = 54%]
Pressure (altimeter): 30.06 inches Hg (1018.0 mb)
Winds: variable direction winds at 3 MPH (3 knots; 1.5 m/s)
Visibility: 6 or more miles (10+ km)
Ceiling: ceiling and visibility are OK
Clouds: unknown
Weather: no significant weather observed at this time

METAR text: LIEO 271750Z 27007KT CAVOK 25/15 Q1018
Conditions at: LIEO (OLBIA/COSTA SMER, IT) observed 1750 UTC 27 September 2021
Temperature: 25.0°C (77°F)
Dewpoint: 15.0°C (59°F) [RH = 54%]
Pressure (altimeter): 30.06 inches Hg (1018.0 mb)
Winds: from the W (270 degrees) at 8 MPH (7 knots; 3.6 m/s)
Visibility: 6 or more miles (10+ km)
Ceiling: ceiling and visibility are OK
Clouds: unknown
Weather: no significant weather observed at this time

Forecast for: LIEO (OLBIA/COSTA SMER, IT)
Text: TAF LIEO 271700Z 2718/2818 29012KT 9999 SCT040
Forecast period: 1800 UTC 27 September 2021 to 1800 UTC 28 September 2021
Forecast type: FROM: standard forecast or significant change
Winds: from the WNW (290 degrees) at 14 MPH (12 knots; 6.2 m/s)
Visibility: 6 or more miles (10+ km)
Ceiling: at least 12,000 feet AGL
Clouds: scattered clouds at 4000 feet AGL
Weather: no significant weather forecast for this period
Text: BECMG 2718/2720 VRB05KT
Forecast period: 1800 UTC 27 September 2021 to 1800 UTC 28 September 2021
Forecast type: BECOMING: Conditions expected to become as follows by 2000 UTC 27 September 2021
Winds: variable direction winds at 6 MPH (5 knots; 2.6 m/s)
Visibility: 6 or more miles (10+ km)
Ceiling: at least 12,000 feet AGL
Clouds: scattered clouds at 4000 feet AGL
Weather: no significant weather forecast for this period